Terminal Aerodrome Forecast
Issued by NWS

Home | Current Version | Previous Version | Text Only | Print | Product List | Glossary On
Versions: 1 2 3 4 5 6 7 8 9 10 11 12 13 14 15 16 17 18 19 20 21 22 23 24 25 26 27 28 29 30 31 32 33 34 35 36
000
FTUS46 KOTX 211130
TAFPUW
TAF
KPUW 211130Z 2112/2212 26025G34KT P6SM BKN023 OVC035 WS020/23045KT
     FM211600 25023G32KT P6SM BKN025 OVC080
     FM212200 25019G29KT P6SM SCT020 BKN090
     FM220600 25016G26KT P6SM OVC025=

USA.gov is the U.S. government's official web portal to all federal, state and local government web resources and services.